Tehran/Imam Khomeini International Airport

Airport
ICAO code: 
OIIE
IATA Code: 
IKA
Summary
ICAO Region: 
MID
Territory: 
Location: 
Salmanabad, Tehran Province
Serving: 
Tehran
Elevation: 
3305 ft
Coordinates: 
Aerial View: 
35° 24' 59.94" N, 51° 9' 11.448" E
Airport RE: 
Hot and High Operations
Metar
Observation
OIIE 081700Z 00000KT 7000 NSC 07/02 Q1023
Station
Tehran Imam Khomeini International Airport
Date/Time
2021-12-08 17:00:00
Wind direction
Wind speed
00 kts
Lowest cloud amount
nil significant cloud
Temperature
7°C
Dew point
2°C
Humidity
70%
QNH
1023 hPa
Weather condition
n/a

Imam Khomeini International Airport is located in Tehran, Iran. The airport is located about 30 km southwest of the city near the localities of Robat-Karim and Eslamshahr.

Climatology

Cold Semi-arid climate (Köppen climate classification BSk).

Runways

Designator Length Width Surface Rops
11L/29R 4198 45 ASP Yes/Yes
11R/29L 4249 45 ASP Yes/Yes
Airport map: 
Aerial View: 

Accidents and Serious Incidents at or in the vicinity of OIIE

SKYbrary Partners:

Safety knowledge contributed by: